Time;durP1;ratioP1;P1;durP2;ratioP2;P2;SDS_P1;SDS_P2;PMS_P1;PMS_P2;Temp;Humidity;BMP_temperature;BMP_pressure;BME280_temperature;BME280_humidity;BME280_pressure;Samples;Min_cycle;Max_cycle;Signal;HPM_P1;HPM_P2
2022/01/03 00:02:13;;;;;;;;;;;10.00;99.90;;;;;;5010949;28;20323;-70
2022/01/03 00:04:39;;;;;;;;;;;10.10;99.90;;;;;;5011624;28;20008;-70
2022/01/03 00:07:05;;;;;;;;;;;10.00;99.90;;;;;;5031765;28;19916;-69
2022/01/03 00:09:32;;;;;;;;;;;10.10;99.90;;;;;;5031826;28;19912;-70
2022/01/03 00:11:58;;;;;;;;;;;10.10;99.90;;;;;;5031474;28;19920;-71
2022/01/03 00:14:28;;;;;;;;;;;10.10;99.90;;;;;;5015331;28;20420;-69
2022/01/03 00:16:59;;;;;;;;;;;10.10;99.90;;;;;;5015159;28;20250;-70
2022/01/03 00:19:27;;;;;;;;;;;10.10;99.90;;;;;;5014985;28;20318;-69
2022/01/03 00:21:53;;;;;;;;;;;10.10;99.90;;;;;;5028023;28;19917;-70
2022/01/03 00:24:24;;;;;;;;;;;10.10;99.90;;;;;;4997971;28;19955;-70
2022/01/03 00:26:56;;;;;;;;;;;10.10;99.90;;;;;;4997637;28;20534;-70
2022/01/03 00:29:22;;;;;;;;;;;10.10;99.90;;;;;;4997876;28;19928;-72
2022/01/03 00:31:58;;;;;;;;;;;10.10;99.90;;;;;;5014946;28;19912;-69
2022/01/03 00:34:27;;;;;;;;;;;10.10;99.90;;;;;;5019279;28;20370;-68
2022/01/03 00:36:53;;;;;;;;;;;10.10;99.90;;;;;;5015542;28;20012;-68
2022/01/03 00:39:22;;;;;;;;;;;10.10;99.90;;;;;;4997696;28;19940;-68
2022/01/03 00:41:49;;;;;;;;;;;10.10;99.90;;;;;;4997690;28;20305;-68
2022/01/03 00:44:17;;;;;;;;;;;10.20;99.90;;;;;;4997608;28;19906;-70
2022/01/03 00:46:44;;;;;;;;;;;10.10;99.90;;;;;;5015346;28;19952;-68
2022/01/03 00:49:13;;;;;;;;;;;10.10;99.90;;;;;;5015247;28;19906;-67
2022/01/03 00:51:41;;;;;;;;;;;10.10;99.90;;;;;;5013484;28;19953;-69
2022/01/03 00:54:07;;;;;;;;;;;10.20;99.90;;;;;;4997417;28;19905;-70
2022/01/03 00:56:38;;;;;;;;;;;10.20;99.90;;;;;;4997421;28;19920;-69
2022/01/03 00:59:03;;;;;;;;;;;10.10;99.90;;;;;;4997517;28;19906;-69
2022/01/03 01:01:34;;;;;;;;;;;10.00;99.90;;;;;;5013257;28;19905;-68
2022/01/03 01:04:01;;;;;;;;;;;9.80;99.90;;;;;;4997414;28;19905;-68
2022/01/03 01:06:32;;;;;;;;;;;9.10;99.90;;;;;;4997512;28;19912;-70
2022/01/03 01:09:08;;;;;;;;;;;8.60;99.90;;;;;;4997413;28;20281;-72
2022/01/03 01:11:34;;;;;;;;;;;8.30;99.90;;;;;;5013794;28;19932;-70
2022/01/03 01:14:00;;;;;;;;;;;8.30;99.90;;;;;;5013845;28;19996;-73
2022/01/03 01:16:28;;;;;;;;;;;8.40;99.90;;;;;;5014991;28;19996;-72
2022/01/03 01:18:54;;;;;;;;;;;8.50;99.90;;;;;;5066961;23;19939;-65
2022/01/03 01:21:20;;;;;;;;;;;8.70;99.90;;;;;;5077154;28;19912;-66
2022/01/03 01:23:48;;;;;;;;;;;8.80;99.90;;;;;;5076442;28;19911;-65
2022/01/03 01:29:01;;;;;;;;;;;8.90;99.90;;;;;;5098030;28;19911;-65
2022/01/03 01:31:26;;;;;;;;;;;8.90;99.90;;;;;;5095065;28;20329;-66
2022/01/03 01:33:54;;;;;;;;;;;9.00;99.90;;;;;;5076765;28;19953;-66
2022/01/03 01:36:23;;;;;;;;;;;9.00;99.90;;;;;;5094679;28;19946;-66
2022/01/03 01:38:50;;;;;;;;;;;9.00;99.90;;;;;;5076554;28;19927;-65
2022/01/03 01:41:17;;;;;;;;;;;9.10;99.90;;;;;;5076668;28;19951;-65
2022/01/03 01:43:43;;;;;;;;;;;9.10;99.90;;;;;;5094465;28;20283;-66
2022/01/03 01:46:19;;;;;;;;;;;9.20;99.90;;;;;;5076473;28;19911;-65
2022/01/03 01:48:47;;;;;;;;;;;9.30;99.90;;;;;;5076356;28;19991;-65
2022/01/03 01:51:14;;;;;;;;;;;9.30;99.90;;;;;;5094459;28;19904;-66
2022/01/03 01:53:41;;;;;;;;;;;9.30;99.90;;;;;;5076177;28;20263;-65
2022/01/03 01:56:14;;;;;;;;;;;9.30;99.90;;;;;;5076090;28;20376;-66
2022/01/03 01:58:51;;;;;;;;;;;9.40;99.90;;;;;;5076086;28;20477;-66
2022/01/03 02:01:19;;;;;;;;;;;9.40;99.90;;;;;;5076133;28;19933;-66
2022/01/03 02:03:48;;;;;;;;;;;9.40;99.90;;;;;;5094126;28;19911;-66
2022/01/03 02:06:16;;;;;;;;;;;9.50;99.90;;;;;;5076262;28;20364;-66
2022/01/03 02:08:51;;;;;;;;;;;9.50;99.90;;;;;;5075844;28;19928;-65
2022/01/03 02:11:35;;;;;;;;;;;9.50;99.90;;;;;;5076004;28;20360;-66
2022/01/03 02:14:00;;;;;;;;;;;9.50;99.90;;;;;;5075841;28;19951;-66
2022/01/03 02:16:26;;;;;;;;;;;9.50;99.90;;;;;;5094247;28;19949;-66
2022/01/03 02:18:51;;;;;;;;;;;9.50;99.90;;;;;;5094043;28;20055;-65
2022/01/03 02:21:19;;;;;;;;;;;9.50;99.90;;;;;;5076018;28;19996;-67
2022/01/03 02:23:45;;;;;;;;;;;9.50;99.90;;;;;;5075702;28;19908;-66
2022/01/03 02:26:10;;;;;;;;;;;9.60;99.90;;;;;;5075860;28;19904;-66
2022/01/03 02:28:36;;;;;;;;;;;9.60;99.90;;;;;;5075248;28;19911;-66
2022/01/03 02:31:01;;;;;;;;;;;9.60;99.90;;;;;;5093743;28;19908;-66
2022/01/03 02:33:27;;;;;;;;;;;9.60;99.90;;;;;;5093797;28;20364;-66
2022/01/03 02:35:52;;;;;;;;;;;9.60;99.90;;;;;;5093827;28;19904;-67
2022/01/03 02:38:18;;;;;;;;;;;9.70;99.90;;;;;;5093838;28;19908;-66
2022/01/03 02:40:43;;;;;;;;;;;9.70;99.90;;;;;;5075507;28;19907;-66
2022/01/03 02:43:09;;;;;;;;;;;9.70;99.90;;;;;;5074768;28;19958;-66
2022/01/03 02:45:35;;;;;;;;;;;9.70;99.90;;;;;;5093743;28;19999;-65
2022/01/03 02:48:02;;;;;;;;;;;9.70;99.90;;;;;;5075464;28;19904;-66
2022/01/03 02:50:29;;;;;;;;;;;9.70;99.90;;;;;;5093509;28;19950;-65
2022/01/03 02:52:55;;;;;;;;;;;9.80;99.90;;;;;;5093602;28;19915;-66
2022/01/03 02:55:20;;;;;;;;;;;9.80;99.90;;;;;;5093273;28;20284;-65
2022/01/03 02:57:51;;;;;;;;;;;9.80;99.90;;;;;;5093226;28;20011;-66
2022/01/03 03:00:18;;;;;;;;;;;9.90;99.90;;;;;;5093496;28;19904;-66
2022/01/03 03:02:44;;;;;;;;;;;9.90;99.90;;;;;;5075042;28;19908;-65
2022/01/03 03:05:10;;;;;;;;;;;9.90;99.90;;;;;;5093321;28;19904;-66
2022/01/03 03:07:36;;;;;;;;;;;9.90;99.90;;;;;;5093200;28;19904;-66
2022/01/03 03:10:04;;;;;;;;;;;9.90;99.90;;;;;;5093419;28;19904;-67
2022/01/03 03:12:29;;;;;;;;;;;9.90;99.90;;;;;;5074793;28;19910;-66
2022/01/03 03:14:55;;;;;;;;;;;10.00;99.90;;;;;;5093120;28;19904;-66
2022/01/03 03:17:20;;;;;;;;;;;10.00;99.90;;;;;;5074926;28;19915;-66
2022/01/03 03:19:50;;;;;;;;;;;10.10;99.90;;;;;;5074959;28;19916;-66
2022/01/03 03:22:15;;;;;;;;;;;10.10;99.90;;;;;;5074725;28;19954;-66
2022/01/03 03:24:41;;;;;;;;;;;10.10;99.90;;;;;;5075001;28;20280;-66
2022/01/03 03:27:10;;;;;;;;;;;10.10;99.90;;;;;;5074953;28;19933;-66
2022/01/03 03:29:41;;;;;;;;;;;10.10;99.90;;;;;;5074910;28;19953;-66
2022/01/03 03:32:06;;;;;;;;;;;10.10;99.90;;;;;;5074807;28;19904;-67
2022/01/03 03:34:32;;;;;;;;;;;10.10;99.90;;;;;;5074966;28;19911;-66
2022/01/03 03:36:57;;;;;;;;;;;10.00;99.90;;;;;;5074851;28;19931;-67
2022/01/03 03:39:24;;;;;;;;;;;10.00;99.90;;;;;;5074946;28;20000;-67
2022/01/03 03:41:49;;;;;;;;;;;10.00;99.90;;;;;;5074227;28;19950;-67
2022/01/03 03:44:15;;;;;;;;;;;10.10;99.90;;;;;;5093079;28;19904;-67
2022/01/03 03:46:40;;;;;;;;;;;10.00;99.90;;;;;;5092977;28;19952;-68
2022/01/03 03:49:06;;;;;;;;;;;10.00;99.90;;;;;;5092901;28;19904;-68
2022/01/03 03:51:38;;;;;;;;;;;9.90;99.90;;;;;;5092820;28;19999;-68
2022/01/03 03:54:03;;;;;;;;;;;9.90;99.90;;;;;;5096192;28;19908;-68
2022/01/03 03:56:29;;;;;;;;;;;10.00;99.90;;;;;;5092436;28;19965;-68
2022/01/03 03:58:54;;;;;;;;;;;9.90;99.90;;;;;;5092661;28;19930;-68
2022/01/03 04:01:20;;;;;;;;;;;9.90;99.90;;;;;;5092901;28;19958;-67
2022/01/03 04:03:45;;;;;;;;;;;9.80;99.90;;;;;;5092595;28;19904;-67
2022/01/03 04:06:11;;;;;;;;;;;9.80;99.90;;;;;;5093172;28;19904;-68
2022/01/03 04:08:36;;;;;;;;;;;9.80;99.90;;;;;;5074722;28;19904;-68
2022/01/03 04:11:02;;;;;;;;;;;9.90;99.90;;;;;;5092842;28;20367;-68
2022/01/03 04:13:27;;;;;;;;;;;9.90;99.90;;;;;;5074455;28;19911;-68
2022/01/03 04:15:52;;;;;;;;;;;9.90;99.90;;;;;;5092368;28;19904;-67
2022/01/03 04:18:18;;;;;;;;;;;9.90;99.90;;;;;;5073721;28;19911;-67
2022/01/03 04:20:43;;;;;;;;;;;9.90;99.90;;;;;;5092646;28;20363;-68
2022/01/03 04:23:09;;;;;;;;;;;9.90;99.90;;;;;;5074359;28;19995;-67
2022/01/03 04:25:34;;;;;;;;;;;9.90;99.90;;;;;;5074527;28;20275;-68
2022/01/03 04:28:00;;;;;;;;;;;9.90;99.90;;;;;;5092444;28;19911;-68
2022/01/03 04:30:25;;;;;;;;;;;9.90;99.90;;;;;;5092475;28;19911;-68
2022/01/03 04:32:51;;;;;;;;;;;9.90;99.90;;;;;;5092161;28;20298;-68
2022/01/03 04:35:16;;;;;;;;;;;9.80;99.90;;;;;;5092353;28;19904;-67
2022/01/03 04:37:42;;;;;;;;;;;9.80;99.90;;;;;;5074198;28;20006;-67
2022/01/03 04:40:08;;;;;;;;;;;9.80;99.90;;;;;;5074267;28;19907;-67
2022/01/03 04:42:33;;;;;;;;;;;9.80;99.90;;;;;;5092232;28;19904;-67
2022/01/03 04:45:00;;;;;;;;;;;9.80;99.90;;;;;;5074362;28;19949;-69
2022/01/03 04:47:25;;;;;;;;;;;9.80;99.90;;;;;;5092568;28;20367;-68
2022/01/03 04:49:51;;;;;;;;;;;9.90;99.90;;;;;;5092346;28;20049;-68
2022/01/03 04:52:16;;;;;;;;;;;9.90;99.90;;;;;;5075032;28;19904;-68
2022/01/03 04:54:42;;;;;;;;;;;9.90;99.90;;;;;;5077593;28;19904;-68
2022/01/03 04:57:07;;;;;;;;;;;9.80;99.90;;;;;;5077787;28;19930;-68
2022/01/03 04:59:33;;;;;;;;;;;9.90;99.90;;;;;;5095982;28;19915;-68
2022/01/03 05:02:00;;;;;;;;;;;9.90;99.90;;;;;;5077448;28;19904;-67
2022/01/03 05:04:25;;;;;;;;;;;9.90;99.90;;;;;;5095887;28;20268;-67
2022/01/03 05:06:51;;;;;;;;;;;9.80;99.90;;;;;;5077675;28;19911;-67
2022/01/03 05:09:16;;;;;;;;;;;9.90;99.90;;;;;;5077445;28;19903;-67
2022/01/03 05:11:42;;;;;;;;;;;9.90;99.90;;;;;;5095219;28;19919;-68
2022/01/03 05:14:07;;;;;;;;;;;9.90;99.90;;;;;;5095482;28;19908;-67
2022/01/03 05:16:33;;;;;;;;;;;10.00;99.90;;;;;;5095584;28;19904;-67
2022/01/03 05:18:58;;;;;;;;;;;10.00;99.90;;;;;;5095267;28;19912;-67
2022/01/03 05:21:25;;;;;;;;;;;9.90;99.90;;;;;;5077239;28;19911;-68
2022/01/03 05:23:51;;;;;;;;;;;9.90;99.90;;;;;;5095301;28;19911;-68
2022/01/03 05:26:16;;;;;;;;;;;9.90;99.90;;;;;;5077259;28;19908;-67
2022/01/03 05:28:42;;;;;;;;;;;9.90;99.90;;;;;;5095229;28;19904;-68
2022/01/03 05:31:09;;;;;;;;;;;10.00;99.90;;;;;;5088773;28;19904;-66
2022/01/03 05:33:34;;;;;;;;;;;9.90;99.90;;;;;;5090279;28;19908;-68
2022/01/03 05:36:00;;;;;;;;;;;9.90;99.90;;;;;;5067023;28;19912;-68
2022/01/03 05:38:25;;;;;;;;;;;10.00;99.90;;;;;;5056585;28;19959;-68
2022/01/03 05:40:51;;;;;;;;;;;9.90;99.90;;;;;;5089639;28;19904;-67
2022/01/03 05:43:16;;;;;;;;;;;9.90;99.90;;;;;;5094902;28;19926;-68
2022/01/03 05:45:42;;;;;;;;;;;9.90;99.90;;;;;;5093598;28;19904;-67
2022/01/03 05:48:07;;;;;;;;;;;9.90;99.90;;;;;;5090617;28;19930;-68
2022/01/03 05:50:33;;;;;;;;;;;9.90;99.90;;;;;;5056569;28;19904;-67
2022/01/03 05:52:58;;;;;;;;;;;9.90;99.90;;;;;;5056369;28;19905;-67
2022/01/03 05:55:24;;;;;;;;;;;9.90;99.90;;;;;;5074565;28;19908;-68
2022/01/03 05:57:49;;;;;;;;;;;9.90;99.90;;;;;;5074454;28;19971;-67
2022/01/03 06:00:17;;;;;;;;;;;9.90;99.90;;;;;;5074619;28;19905;-67
2022/01/03 06:02:43;;;;;;;;;;;9.90;99.90;;;;;;5084876;28;19904;-67
2022/01/03 06:05:17;;;;;;;;;;;9.90;99.90;;;;;;5093986;28;20396;-67
2022/01/03 06:07:42;;;;;;;;;;;9.90;99.90;;;;;;5095935;28;19911;-67
2022/01/03 06:10:09;;;;;;;;;;;9.80;99.90;;;;;;5090593;28;19904;-66
2022/01/03 06:12:35;;;;;;;;;;;9.90;99.90;;;;;;5067151;28;19916;-67
2022/01/03 06:15:00;;;;;;;;;;;9.80;99.90;;;;;;5092796;28;19911;-67
2022/01/03 06:17:26;;;;;;;;;;;9.80;99.90;;;;;;5092980;28;20007;-66
2022/01/03 06:19:51;;;;;;;;;;;9.80;99.90;;;;;;5093939;28;19912;-66
2022/01/03 06:22:17;;;;;;;;;;;9.80;99.90;;;;;;5075638;28;19930;-66
2022/01/03 06:24:43;;;;;;;;;;;9.70;99.90;;;;;;5092626;28;19904;-66
2022/01/03 06:27:09;;;;;;;;;;;9.70;99.90;;;;;;5093891;28;19904;-66
2022/01/03 06:29:34;;;;;;;;;;;9.70;99.90;;;;;;5093962;28;20602;-66
2022/01/03 06:32:00;;;;;;;;;;;9.80;99.90;;;;;;5075193;28;19926;-67
2022/01/03 06:34:25;;;;;;;;;;;9.80;99.90;;;;;;5093839;28;19904;-67
2022/01/03 06:36:51;;;;;;;;;;;9.80;99.90;;;;;;5093881;28;19924;-66
2022/01/03 06:39:17;;;;;;;;;;;9.80;99.90;;;;;;5093882;28;19954;-66
2022/01/03 06:41:43;;;;;;;;;;;9.80;99.90;;;;;;5075581;28;20298;-66
2022/01/03 06:44:08;;;;;;;;;;;9.80;99.90;;;;;;5093658;28;19904;-67
2022/01/03 06:46:34;;;;;;;;;;;9.80;99.90;;;;;;5075539;28;19915;-67
2022/01/03 06:49:00;;;;;;;;;;;9.80;99.90;;;;;;5093755;28;19904;-66
2022/01/03 06:51:28;;;;;;;;;;;9.80;99.90;;;;;;5093704;28;19946;-66
2022/01/03 06:53:54;;;;;;;;;;;9.80;99.90;;;;;;5092947;28;19915;-67
2022/01/03 06:56:20;;;;;;;;;;;9.80;99.90;;;;;;5093676;28;19904;-66
2022/01/03 06:58:46;;;;;;;;;;;9.80;99.90;;;;;;5075731;28;20391;-67
2022/01/03 07:01:12;;;;;;;;;;;9.80;99.90;;;;;;5093777;28;19904;-66
2022/01/03 07:03:37;;;;;;;;;;;9.80;99.90;;;;;;5075267;28;20378;-66
2022/01/03 07:06:03;;;;;;;;;;;9.80;99.90;;;;;;5093557;28;19904;-66
2022/01/03 07:08:28;;;;;;;;;;;9.80;99.90;;;;;;5093011;28;19904;-67
2022/01/03 07:10:54;;;;;;;;;;;9.80;99.90;;;;;;5075403;28;19950;-66
2022/01/03 07:13:19;;;;;;;;;;;9.80;99.90;;;;;;5075243;28;19908;-66
2022/01/03 07:21:13;;;;;;;;;;;9.80;99.90;;;;;;5030263;28;20324;-69
2022/01/03 07:23:39;;;;;;;;;;;9.80;99.90;;;;;;5029774;28;19909;-68
2022/01/03 07:26:05;;;;;;;;;;;9.80;99.90;;;;;;5019537;28;20365;-69
2022/01/03 07:28:30;;;;;;;;;;;9.80;99.90;;;;;;5029085;28;19913;-69
2022/01/03 07:30:56;;;;;;;;;;;9.80;99.90;;;;;;5026666;28;19906;-69
2022/01/03 07:33:22;;;;;;;;;;;9.80;99.90;;;;;;5030764;28;20320;-69
2022/01/03 07:35:47;;;;;;;;;;;9.80;99.90;;;;;;5030311;28;19906;-68
2022/01/03 07:38:13;;;;;;;;;;;9.80;99.90;;;;;;5013780;28;19917;-69
2022/01/03 07:40:38;;;;;;;;;;;9.80;99.90;;;;;;5029507;28;19913;-70
2022/01/03 07:43:04;;;;;;;;;;;9.80;99.90;;;;;;5020886;28;19912;-69
2022/01/03 07:45:30;;;;;;;;;;;9.80;99.90;;;;;;5029805;28;19905;-69
2022/01/03 07:47:55;;;;;;;;;;;9.80;99.90;;;;;;5029991;28;19912;-67
2022/01/03 07:50:21;;;;;;;;;;;9.80;99.90;;;;;;5031313;28;19905;-69
2022/01/03 07:52:46;;;;;;;;;;;9.90;99.90;;;;;;5030021;28;20030;-69
2022/01/03 07:55:13;;;;;;;;;;;9.90;99.90;;;;;;5031220;28;20019;-69
2022/01/03 07:57:38;;;;;;;;;;;9.90;99.90;;;;;;5031134;28;19952;-69
2022/01/03 08:00:05;;;;;;;;;;;9.90;99.90;;;;;;5031027;28;19959;-69
2022/01/03 08:02:30;;;;;;;;;;;9.90;99.90;;;;;;5029567;28;19943;-69
2022/01/03 08:04:56;;;;;;;;;;;9.90;99.90;;;;;;5029770;28;20007;-69
2022/01/03 08:07:21;;;;;;;;;;;9.90;99.90;;;;;;5031314;28;19912;-70
2022/01/03 08:09:47;;;;;;;;;;;9.90;99.90;;;;;;5029721;28;19909;-68
2022/01/03 08:12:13;;;;;;;;;;;9.90;99.90;;;;;;5029617;28;19971;-69
2022/01/03 08:14:38;;;;;;;;;;;9.80;99.90;;;;;;5031167;28;19915;-69
2022/01/03 08:17:05;;;;;;;;;;;9.80;99.90;;;;;;5029977;28;19952;-70
2022/01/03 08:19:31;;;;;;;;;;;9.80;99.90;;;;;;5027907;28;19913;-69
2022/01/03 08:21:56;;;;;;;;;;;9.80;99.90;;;;;;5029336;28;20000;-69
2022/01/03 08:24:22;;;;;;;;;;;9.80;99.90;;;;;;5029675;28;19964;-70
2022/01/03 08:26:49;;;;;;;;;;;9.70;99.90;;;;;;5031590;28;19963;-69
2022/01/03 08:29:14;;;;;;;;;;;9.80;99.90;;;;;;5031456;28;19963;-69
2022/01/03 08:31:40;;;;;;;;;;;9.80;99.90;;;;;;5031538;28;20003;-69
2022/01/03 08:34:05;;;;;;;;;;;9.80;99.90;;;;;;5017633;28;19913;-69
2022/01/03 08:36:31;;;;;;;;;;;9.80;99.90;;;;;;5014863;28;19905;-70
2022/01/03 08:38:57;;;;;;;;;;;9.80;99.90;;;;;;5015157;28;19909;-68
2022/01/03 08:41:22;;;;;;;;;;;9.80;99.90;;;;;;5031432;28;20007;-68
2022/01/03 08:43:48;;;;;;;;;;;9.80;99.90;;;;;;5023969;28;19908;-68
2022/01/03 08:46:13;;;;;;;;;;;9.90;99.90;;;;;;5022719;28;20269;-68
2022/01/03 08:48:39;;;;;;;;;;;9.90;99.90;;;;;;5031538;28;19915;-69
2022/01/03 08:51:05;;;;;;;;;;;10.00;99.90;;;;;;5029412;28;20421;-69
2022/01/03 08:53:30;;;;;;;;;;;10.00;99.90;;;;;;5029596;28;19912;-69
2022/01/03 08:55:56;;;;;;;;;;;10.00;99.90;;;;;;5029989;28;19936;-67
2022/01/03 08:58:23;;;;;;;;;;;10.10;99.90;;;;;;5029892;28;19909;-68
2022/01/03 09:00:51;;;;;;;;;;;10.10;99.90;;;;;;5014591;28;20391;-69
2022/01/03 09:03:17;;;;;;;;;;;10.10;99.90;;;;;;5030262;28;19955;-69
2022/01/03 09:05:43;;;;;;;;;;;10.10;99.90;;;;;;5015448;28;19905;-68
2022/01/03 09:08:09;;;;;;;;;;;10.10;99.90;;;;;;5014364;28;19906;-69
2022/01/03 09:10:34;;;;;;;;;;;10.10;99.90;;;;;;5029527;28;19912;-69
2022/01/03 09:13:00;;;;;;;;;;;10.10;99.90;;;;;;5014125;28;20369;-69
2022/01/03 09:15:25;;;;;;;;;;;10.10;99.90;;;;;;5029285;28;19917;-69
2022/01/03 09:17:51;;;;;;;;;;;10.10;99.90;;;;;;5014004;28;19915;-69
2022/01/03 09:20:16;;;;;;;;;;;10.10;99.90;;;;;;5024065;28;20262;-73
2022/01/03 09:22:46;;;;;;;;;;;10.10;99.90;;;;;;5029447;28;19913;-71
2022/01/03 09:30:28;;;;;;;;;;;10.20;99.90;;;;;;5014614;28;20289;-68
2022/01/03 09:32:54;;;;;;;;;;;10.30;99.90;;;;;;5029256;28;19905;-69
2022/01/03 09:35:21;;;;;;;;;;;10.40;99.90;;;;;;5032266;28;20003;-68
2022/01/03 09:37:46;;;;;;;;;;;10.40;99.90;;;;;;5032955;28;20285;-68
2022/01/03 09:40:12;;;;;;;;;;;10.50;99.90;;;;;;5033376;28;19905;-74
2022/01/03 09:42:38;;;;;;;;;;;10.50;99.90;;;;;;5034093;28;19915;-70
2022/01/03 09:45:05;;;;;;;;;;;10.60;99.90;;;;;;5033805;28;19905;-71
2022/01/03 09:47:31;;;;;;;;;;;10.70;99.90;;;;;;5036178;28;19905;-70
2022/01/03 09:49:57;;;;;;;;;;;10.70;99.90;;;;;;5037133;28;19932;-72
2022/01/03 09:52:23;;;;;;;;;;;10.70;99.90;;;;;;5033628;28;20323;-70
2022/01/03 09:54:50;;;;;;;;;;;10.80;99.90;;;;;;5033970;28;20423;-76
2022/01/03 09:57:17;;;;;;;;;;;10.70;99.90;;;;;;5031898;28;19909;-73
2022/01/03 09:59:43;;;;;;;;;;;10.70;99.90;;;;;;5033182;28;19943;-74
2022/01/03 10:02:09;;;;;;;;;;;10.70;99.90;;;;;;5033299;28;19976;-72
2022/01/03 10:04:35;;;;;;;;;;;10.80;99.90;;;;;;5033358;28;20279;-73
2022/01/03 10:07:01;;;;;;;;;;;10.80;99.90;;;;;;5031972;28;19905;-74
2022/01/03 10:09:26;;;;;;;;;;;10.70;99.90;;;;;;5015301;28;19913;-73
2022/01/03 10:11:52;;;;;;;;;;;10.70;99.90;;;;;;5033008;28;19927;-73
2022/01/03 10:14:18;;;;;;;;;;;10.70;99.90;;;;;;5033640;28;19912;-73
2022/01/03 10:16:45;;;;;;;;;;;10.70;99.90;;;;;;5031722;28;19945;-74
2022/01/03 10:19:10;;;;;;;;;;;10.70;99.90;;;;;;5032867;28;19939;-74
2022/01/03 10:21:37;;;;;;;;;;;10.70;99.90;;;;;;5032872;28;20369;-75
2022/01/03 10:24:04;;;;;;;;;;;10.70;99.90;;;;;;5032601;28;19912;-74
2022/01/03 10:26:29;;;;;;;;;;;10.70;99.90;;;;;;5032919;28;19911;-71
2022/01/03 10:29:13;;;;;;;;;;;10.70;99.90;;;;;;5032703;28;19909;-70
2022/01/03 10:31:40;;;;;;;;;;;10.60;99.90;;;;;;5032787;28;19909;-72
2022/01/03 10:34:06;;;;;;;;;;;10.50;99.90;;;;;;5028974;28;19959;-72
2022/01/03 10:36:33;;;;;;;;;;;10.40;99.90;;;;;;5023238;28;19933;-73
2022/01/03 10:39:18;;;;;;;;;;;10.40;99.90;;;;;;5019437;28;19980;-72
2022/01/03 10:41:45;;;;;;;;;;;10.40;99.90;;;;;;5023229;28;20369;-73
2022/01/03 10:44:11;;;;;;;;;;;10.40;99.90;;;;;;5022580;28;19996;-73
2022/01/03 10:46:37;;;;;;;;;;;10.40;99.90;;;;;;5028381;28;19913;-72
2022/01/03 10:49:15;;;;;;;;;;;10.50;99.90;;;;;;5032462;28;19905;-72
2022/01/03 10:51:41;;;;;;;;;;;10.60;99.90;;;;;;5036642;28;19951;-72
2022/01/03 10:54:12;;;;;;;;;;;10.70;99.90;;;;;;5032376;28;20000;-73
2022/01/03 10:56:39;;;;;;;;;;;10.60;99.90;;;;;;5032576;28;20379;-73
2022/01/03 10:59:14;;;;;;;;;;;10.60;99.90;;;;;;5032157;28;19909;-73
2022/01/03 11:01:41;;;;;;;;;;;10.60;99.90;;;;;;5031849;28;20333;-73
2022/01/03 11:04:07;;;;;;;;;;;10.50;99.90;;;;;;5031066;28;20289;-74
2022/01/03 11:06:49;;;;;;;;;;;10.60;99.90;;;;;;5030993;28;19905;-74
2022/01/03 11:12:15;;;;;;;;;;;10.80;99.90;;;;;;5031839;28;19951;-74
2022/01/03 11:14:42;;;;;;;;;;;10.90;99.90;;;;;;5030969;28;19975;-73
2022/01/03 11:17:27;;;;;;;;;;;10.80;99.90;;;;;;5029075;28;19956;-74
2022/01/03 11:19:53;;;;;;;;;;;10.70;99.90;;;;;;5025879;28;19913;-74
2022/01/03 11:22:37;;;;;;;;;;;10.70;99.90;;;;;;5021438;28;20060;-72
2022/01/03 11:25:02;;;;;;;;;;;10.70;99.90;;;;;;5027973;28;19973;-72
2022/01/03 11:27:28;;;;;;;;;;;10.60;99.90;;;;;;5021041;28;19909;-71
2022/01/03 11:29:53;;;;;;;;;;;10.60;99.90;;;;;;5030115;28;19935;-74
2022/01/03 11:32:19;;;;;;;;;;;10.70;99.90;;;;;;5031419;28;19905;-75
2022/01/03 11:34:46;;;;;;;;;;;10.80;99.90;;;;;;5013924;28;19912;-74
2022/01/03 11:37:11;;;;;;;;;;;10.90;99.90;;;;;;5032127;28;19916;-75
2022/01/03 11:39:37;;;;;;;;;;;11.00;99.90;;;;;;5022559;28;19913;-75
2022/01/03 11:42:02;;;;;;;;;;;11.00;99.90;;;;;;5020509;28;19909;-74
2022/01/03 11:44:29;;;;;;;;;;;11.30;99.90;;;;;;5021546;28;19909;-74
2022/01/03 11:46:54;;;;;;;;;;;11.20;99.90;;;;;;5021065;28;19909;-74
2022/01/03 11:49:23;;;;;;;;;;;11.30;99.90;;;;;;5027331;28;19925;-74
2022/01/03 11:51:49;;;;;;;;;;;11.10;99.90;;;;;;5021206;28;20353;-75
2022/01/03 11:54:16;;;;;;;;;;;11.00;99.90;;;;;;5027738;28;19911;-75
2022/01/03 11:56:47;;;;;;;;;;;10.90;99.90;;;;;;5027815;28;19905;-74
2022/01/03 12:04:31;;;;;;;;;;;11.20;99.90;;;;;;5042006;28;19911;-74
2022/01/03 12:07:05;;;;;;;;;;;11.80;99.90;;;;;;5035677;28;19952;-74
2022/01/03 12:09:31;;;;;;;;;;;12.10;99.90;;;;;;5035596;28;19905;-74
2022/01/03 12:11:57;;;;;;;;;;;12.00;99.90;;;;;;5035564;28;19948;-74
2022/01/03 12:14:23;;;;;;;;;;;11.60;99.90;;;;;;5035633;28;19912;-74
2022/01/03 12:16:50;;;;;;;;;;;11.60;99.90;;;;;;5035579;28;19909;-74
2022/01/03 12:19:21;;;;;;;;;;;11.40;99.90;;;;;;5035473;28;19913;-71
2022/01/03 12:21:55;;;;;;;;;;;11.60;99.90;;;;;;5035244;28;19905;-71
2022/01/03 12:24:27;;;;;;;;;;;11.50;99.90;;;;;;5035540;28;19912;-73
2022/01/03 12:27:14;;;;;;;;;;;11.50;99.90;;;;;;5034160;28;19955;-72
2022/01/03 12:29:55;;;;;;;;;;;11.30;99.90;;;;;;5033748;28;20314;-73
2022/01/03 12:32:20;;;;;;;;;;;11.30;99.90;;;;;;5034815;28;19999;-73
2022/01/03 12:35:06;;;;;;;;;;;11.20;99.90;;;;;;5034201;28;19949;-72
2022/01/03 12:37:35;;;;;;;;;;;11.20;99.90;;;;;;5033825;28;20300;-72
2022/01/03 12:40:03;;;;;;;;;;;11.20;99.90;;;;;;4686037;28;10000021;-71
2022/01/03 12:42:54;;;;;;;;;;;11.10;99.90;;;;;;5028315;28;19916;-74
2022/01/03 12:45:25;;;;;;;;;;;11.10;99.90;;;;;;5023535;28;19909;-75
2022/01/03 12:47:51;;;;;;;;;;;11.00;99.90;;;;;;5024177;28;19924;-74
2022/01/03 12:50:22;;;;;;;;;;;10.80;99.90;;;;;;5025198;28;19953;-72
2022/01/03 12:52:48;;;;;;;;;;;10.90;99.90;;;;;;5021613;28;20241;-70
2022/01/03 12:55:33;;;;;;;;;;;10.90;99.90;;;;;;5022580;28;20004;-72
2022/01/03 12:57:58;;;;;;;;;;;11.00;99.90;;;;;;5022774;28;20388;-73
2022/01/03 13:00:41;;;;;;;;;;;11.00;99.90;;;;;;5021531;28;20059;-73
2022/01/03 13:03:19;;;;;;;;;;;10.90;99.90;;;;;;5023341;28;19906;-73
2022/01/03 13:06:04;;;;;;;;;;;11.00;99.90;;;;;;5021264;28;19911;-73
2022/01/03 13:08:30;;;;;;;;;;;10.90;99.90;;;;;;5029220;28;19909;-73
2022/01/03 13:11:02;;;;;;;;;;;10.70;99.90;;;;;;5029415;28;20266;-72
2022/01/03 13:13:28;;;;;;;;;;;10.80;99.90;;;;;;5026275;28;19913;-74
2022/01/03 13:15:54;;;;;;;;;;;10.80;99.90;;;;;;5031041;28;20273;-72
2022/01/03 13:18:19;;;;;;;;;;;10.80;99.90;;;;;;5025474;28;19913;-72
2022/01/03 13:20:58;;;;;;;;;;;10.80;99.90;;;;;;5080716;23;19924;-66
2022/01/03 13:23:26;;;;;;;;;;;10.70;99.90;;;;;;5084679;28;19904;-66
2022/01/03 13:26:04;;;;;;;;;;;10.70;99.90;;;;;;5076328;28;20268;-65
2022/01/03 13:28:29;;;;;;;;;;;10.70;99.90;;;;;;5094992;28;19908;-66
2022/01/03 13:31:02;;;;;;;;;;;10.70;99.90;;;;;;5095210;28;20331;-66
2022/01/03 13:33:28;;;;;;;;;;;11.00;99.90;;;;;;5076187;28;20232;-66
2022/01/03 13:36:00;;;;;;;;;;;11.70;99.90;;;;;;5076423;28;19953;-66
2022/01/03 13:38:25;;;;;;;;;;;12.20;99.90;;;;;;5091413;28;20010;-66
2022/01/03 13:40:51;;;;;;;;;;;12.60;99.90;;;;;;5074200;28;19936;-65
2022/01/03 13:43:18;;;;;;;;;;;12.80;99.90;;;;;;5059158;28;19961;-66
2022/01/03 13:51:07;;;;;;;;;;;11.60;99.90;;;;;;5092299;28;19915;-66
2022/01/03 13:53:32;;;;;;;;;;;11.20;99.90;;;;;;5094287;28;19904;-65
2022/01/03 13:55:59;;;;;;;;;;;11.00;99.90;;;;;;5094349;28;19919;-66
2022/01/03 13:58:25;;;;;;;;;;;10.90;99.90;;;;;;5094428;28;19908;-66
2022/01/03 14:00:55;;;;;;;;;;;10.80;99.90;;;;;;5094437;28;19993;-67
2022/01/03 14:03:22;;;;;;;;;;;10.70;99.90;;;;;;5094279;28;20368;-68
2022/01/03 14:05:48;;;;;;;;;;;10.70;99.90;;;;;;5094114;28;19904;-66
2022/01/03 14:08:18;;;;;;;;;;;10.60;99.90;;;;;;5075935;28;20261;-66
2022/01/03 14:10:48;;;;;;;;;;;10.60;99.90;;;;;;5076276;28;20447;-66
2022/01/03 14:13:18;;;;;;;;;;;10.50;99.90;;;;;;5075992;28;19911;-67
2022/01/03 14:15:59;;;;;;;;;;;10.40;99.90;;;;;;5076352;28;19939;-66
2022/01/03 14:18:34;;;;;;;;;;;10.40;99.90;;;;;;5094752;28;19908;-68
2022/01/03 14:21:06;;;;;;;;;;;10.50;99.90;;;;;;5076708;28;19974;-65
2022/01/03 14:23:32;;;;;;;;;;;10.50;99.90;;;;;;5094519;28;19965;-67
2022/01/03 14:26:15;;;;;;;;;;;10.50;99.90;;;;;;5075786;28;19908;-66
2022/01/03 14:28:41;;;;;;;;;;;10.50;99.90;;;;;;5094326;28;20360;-66
2022/01/03 14:31:08;;;;;;;;;;;10.40;99.90;;;;;;5093710;28;19911;-66
2022/01/03 14:33:37;;;;;;;;;;;10.40;99.90;;;;;;5093660;28;19915;-67
2022/01/03 14:36:14;;;;;;;;;;;10.40;99.90;;;;;;5090358;28;19908;-67
2022/01/03 14:38:41;;;;;;;;;;;10.30;99.90;;;;;;5058380;28;20265;-68
2022/01/03 14:41:18;;;;;;;;;;;10.30;99.90;;;;;;5072690;28;19999;-67
2022/01/03 14:43:59;;;;;;;;;;;10.30;99.90;;;;;;4805565;28;10000382;-67
2022/01/03 14:46:32;;;;;;;;;;;10.20;99.90;;;;;;4703980;28;10001396;-67
2022/01/03 14:48:58;;;;;;;;;;;10.20;99.90;;;;;;5057957;28;19914;-67
2022/01/03 14:51:36;;;;;;;;;;;10.30;99.90;;;;;;5086789;28;19957;-67
2022/01/03 14:54:12;;;;;;;;;;;10.30;99.90;;;;;;5069981;28;20240;-67